sensor_id;sensor_type;location;lat;lon;timestamp;P1;durP1;ratioP1;P2;durP2;ratioP2
55218;SDS011;41088;44.012;20.902;2022-09-30T00:00:19;8.07;;;1.80;;
55218;SDS011;41088;44.012;20.902;2022-09-30T00:02:45;4.70;;;1.60;;
55218;SDS011;41088;44.012;20.902;2022-09-30T00:05:11;4.35;;;1.55;;
55218;SDS011;41088;44.012;20.902;2022-09-30T00:07:40;4.07;;;1.48;;
55218;SDS011;41088;44.012;20.902;2022-09-30T00:10:06;4.40;;;1.60;;
55218;SDS011;41088;44.012;20.902;2022-09-30T00:12:33;5.40;;;2.00;;
55218;SDS011;41088;44.012;20.902;2022-09-30T00:14:59;6.28;;;1.70;;
55218;SDS011;41088;44.012;20.902;2022-09-30T00:17:25;7.22;;;1.90;;
55218;SDS011;41088;44.012;20.902;2022-09-30T00:19:52;8.07;;;1.85;;
55218;SDS011;41088;44.012;20.902;2022-09-30T00:22:18;7.05;;;1.70;;
55218;SDS011;41088;44.012;20.902;2022-09-30T00:24:44;5.65;;;1.67;;
55218;SDS011;41088;44.012;20.902;2022-09-30T00:27:11;6.47;;;2.00;;
55218;SDS011;41088;44.012;20.902;2022-09-30T00:29:42;6.80;;;1.90;;
55218;SDS011;41088;44.012;20.902;2022-09-30T00:32:08;4.30;;;2.00;;
55218;SDS011;41088;44.012;20.902;2022-09-30T00:34:34;5.68;;;2.00;;
55218;SDS011;41088;44.012;20.902;2022-09-30T00:37:00;5.93;;;1.95;;
55218;SDS011;41088;44.012;20.902;2022-09-30T00:39:27;6.60;;;1.92;;
55218;SDS011;41088;44.012;20.902;2022-09-30T00:41:55;5.30;;;1.73;;
55218;SDS011;41088;44.012;20.902;2022-09-30T00:47:29;4.13;;;1.90;;
55218;SDS011;41088;44.012;20.902;2022-09-30T00:55:25;4.97;;;1.67;;
55218;SDS011;41088;44.012;20.902;2022-09-30T00:58:01;5.25;;;1.70;;
55218;SDS011;41088;44.012;20.902;2022-09-30T01:00:29;3.50;;;1.60;;
55218;SDS011;41088;44.012;20.902;2022-09-30T01:03:01;4.80;;;1.55;;
55218;SDS011;41088;44.012;20.902;2022-09-30T01:05:28;4.45;;;2.17;;
55218;SDS011;41088;44.012;20.902;2022-09-30T01:07:56;6.15;;;2.10;;
55218;SDS011;41088;44.012;20.902;2022-09-30T01:10:28;5.57;;;1.98;;
55218;SDS011;41088;44.012;20.902;2022-09-30T01:12:57;9.85;;;2.33;;
55218;SDS011;41088;44.012;20.902;2022-09-30T01:15:26;5.88;;;1.70;;
55218;SDS011;41088;44.012;20.902;2022-09-30T01:18:07;4.75;;;1.77;;
55218;SDS011;41088;44.012;20.902;2022-09-30T01:20:51;5.95;;;1.88;;
55218;SDS011;41088;44.012;20.902;2022-09-30T01:31:59;7.18;;;2.20;;
55218;SDS011;41088;44.012;20.902;2022-09-30T01:34:58;8.35;;;2.15;;
55218;SDS011;41088;44.012;20.902;2022-09-30T01:37:44;5.05;;;2.10;;
55218;SDS011;41088;44.012;20.902;2022-09-30T01:43:02;7.97;;;3.00;;
55218;SDS011;41088;44.012;20.902;2022-09-30T01:45:49;6.80;;;2.50;;
55218;SDS011;41088;44.012;20.902;2022-09-30T01:51:14;8.35;;;1.80;;
55218;SDS011;41088;44.012;20.902;2022-09-30T01:54:07;6.70;;;1.60;;
55218;SDS011;41088;44.012;20.902;2022-09-30T01:57:09;7.68;;;1.73;;
55218;SDS011;41088;44.012;20.902;2022-09-30T01:59:59;6.60;;;1.77;;
55218;SDS011;41088;44.012;20.902;2022-09-30T02:02:35;7.18;;;1.80;;
55218;SDS011;41088;44.012;20.902;2022-09-30T02:08:14;5.38;;;2.17;;
55218;SDS011;41088;44.012;20.902;2022-09-30T02:11:07;9.10;;;2.47;;
55218;SDS011;41088;44.012;20.902;2022-09-30T02:16:31;7.43;;;2.50;;
55218;SDS011;41088;44.012;20.902;2022-09-30T02:19:25;9.25;;;3.85;;
55218;SDS011;41088;44.012;20.902;2022-09-30T02:22:14;8.10;;;2.47;;
55218;SDS011;41088;44.012;20.902;2022-09-30T02:25:06;11.13;;;4.40;;
55218;SDS011;41088;44.012;20.902;2022-09-30T02:27:38;13.93;;;6.70;;
55218;SDS011;41088;44.012;20.902;2022-09-30T02:30:12;10.57;;;4.30;;
55218;SDS011;41088;44.012;20.902;2022-09-30T02:32:43;8.52;;;2.60;;
55218;SDS011;41088;44.012;20.902;2022-09-30T02:35:26;8.90;;;2.30;;
55218;SDS011;41088;44.012;20.902;2022-09-30T02:37:59;7.55;;;2.33;;
55218;SDS011;41088;44.012;20.902;2022-09-30T02:40:37;8.40;;;2.33;;
55218;SDS011;41088;44.012;20.902;2022-09-30T02:43:20;6.97;;;2.55;;
55218;SDS011;41088;44.012;20.902;2022-09-30T02:45:49;9.40;;;2.60;;
55218;SDS011;41088;44.012;20.902;2022-09-30T02:51:04;6.82;;;2.50;;
55218;SDS011;41088;44.012;20.902;2022-09-30T02:56:33;8.52;;;2.60;;
55218;SDS011;41088;44.012;20.902;2022-09-30T03:01:35;10.35;;;2.30;;
55218;SDS011;41088;44.012;20.902;2022-09-30T03:04:10;6.53;;;2.03;;
55218;SDS011;41088;44.012;20.902;2022-09-30T03:09:05;9.25;;;2.47;;
55218;SDS011;41088;44.012;20.902;2022-09-30T03:11:34;7.43;;;2.60;;
55218;SDS011;41088;44.012;20.902;2022-09-30T03:14:13;12.75;;;2.78;;
55218;SDS011;41088;44.012;20.902;2022-09-30T03:19:51;4.63;;;1.90;;
55218;SDS011;41088;44.012;20.902;2022-09-30T03:25:33;6.38;;;2.08;;
55218;SDS011;41088;44.012;20.902;2022-09-30T03:31:04;8.55;;;2.38;;
55218;SDS011;41088;44.012;20.902;2022-09-30T03:33:45;5.75;;;1.90;;
55218;SDS011;41088;44.012;20.902;2022-09-30T03:36:14;9.95;;;2.33;;
55218;SDS011;41088;44.012;20.902;2022-09-30T03:43:56;5.60;;;2.50;;
55218;SDS011;41088;44.012;20.902;2022-09-30T03:46:37;12.30;;;4.22;;
55218;SDS011;41088;44.012;20.902;2022-09-30T03:49:07;10.65;;;3.30;;
55218;SDS011;41088;44.012;20.902;2022-09-30T03:51:37;9.88;;;3.20;;
55218;SDS011;41088;44.012;20.902;2022-09-30T03:54:08;6.63;;;2.22;;
55218;SDS011;41088;44.012;20.902;2022-09-30T03:56:36;8.45;;;2.33;;
55218;SDS011;41088;44.012;20.902;2022-09-30T03:59:09;10.75;;;2.45;;
55218;SDS011;41088;44.012;20.902;2022-09-30T04:01:42;11.20;;;2.78;;
55218;SDS011;41088;44.012;20.902;2022-09-30T04:04:11;10.68;;;3.20;;
55218;SDS011;41088;44.012;20.902;2022-09-30T04:06:46;9.70;;;4.15;;
55218;SDS011;41088;44.012;20.902;2022-09-30T04:09:12;10.15;;;3.65;;
55218;SDS011;41088;44.012;20.902;2022-09-30T04:11:38;7.32;;;3.33;;
55218;SDS011;41088;44.012;20.902;2022-09-30T04:14:04;14.95;;;7.68;;
55218;SDS011;41088;44.012;20.902;2022-09-30T04:16:31;12.50;;;5.32;;
55218;SDS011;41088;44.012;20.902;2022-09-30T04:18:58;11.05;;;4.90;;
55218;SDS011;41088;44.012;20.902;2022-09-30T04:21:24;11.52;;;3.97;;
55218;SDS011;41088;44.012;20.902;2022-09-30T04:23:53;8.63;;;3.90;;
55218;SDS011;41088;44.012;20.902;2022-09-30T04:26:21;12.60;;;4.43;;
55218;SDS011;41088;44.012;20.902;2022-09-30T04:28:47;10.45;;;4.63;;
55218;SDS011;41088;44.012;20.902;2022-09-30T04:31:13;19.63;;;5.50;;
55218;SDS011;41088;44.012;20.902;2022-09-30T04:33:41;8.18;;;4.22;;
55218;SDS011;41088;44.012;20.902;2022-09-30T04:36:09;8.75;;;3.40;;
55218;SDS011;41088;44.012;20.902;2022-09-30T04:38:35;11.27;;;2.80;;
55218;SDS011;41088;44.012;20.902;2022-09-30T04:41:01;9.57;;;3.40;;
55218;SDS011;41088;44.012;20.902;2022-09-30T04:43:29;11.13;;;4.75;;
55218;SDS011;41088;44.012;20.902;2022-09-30T04:45:55;11.27;;;5.75;;
55218;SDS011;41088;44.012;20.902;2022-09-30T04:48:22;11.27;;;4.07;;
55218;SDS011;41088;44.012;20.902;2022-09-30T04:50:48;12.60;;;4.85;;
55218;SDS011;41088;44.012;20.902;2022-09-30T04:53:15;9.85;;;3.40;;
55218;SDS011;41088;44.012;20.902;2022-09-30T04:55:42;9.00;;;2.85;;
55218;SDS011;41088;44.012;20.902;2022-09-30T04:58:09;7.50;;;3.00;;
55218;SDS011;41088;44.012;20.902;2022-09-30T05:00:35;7.00;;;2.70;;
55218;SDS011;41088;44.012;20.902;2022-09-30T05:03:02;8.75;;;2.47;;
55218;SDS011;41088;44.012;20.902;2022-09-30T05:05:29;6.22;;;2.67;;
55218;SDS011;41088;44.012;20.902;2022-09-30T05:07:59;10.65;;;3.40;;
55218;SDS011;41088;44.012;20.902;2022-09-30T05:10:28;7.43;;;3.80;;
55218;SDS011;41088;44.012;20.902;2022-09-30T05:12:56;11.85;;;4.25;;
55218;SDS011;41088;44.012;20.902;2022-09-30T05:15:25;9.68;;;4.07;;
55218;SDS011;41088;44.012;20.902;2022-09-30T05:17:52;13.50;;;4.15;;
55218;SDS011;41088;44.012;20.902;2022-09-30T05:20:18;11.30;;;3.15;;
55218;SDS011;41088;44.012;20.902;2022-09-30T05:22:45;13.93;;;3.65;;
55218;SDS011;41088;44.012;20.902;2022-09-30T05:25:11;8.45;;;3.45;;
55218;SDS011;41088;44.012;20.902;2022-09-30T05:27:37;10.10;;;3.67;;
55218;SDS011;41088;44.012;20.902;2022-09-30T05:30:04;9.10;;;3.50;;
55218;SDS011;41088;44.012;20.902;2022-09-30T05:32:30;11.07;;;3.10;;
55218;SDS011;41088;44.012;20.902;2022-09-30T05:34:56;10.55;;;2.85;;
55218;SDS011;41088;44.012;20.902;2022-09-30T05:37:22;10.38;;;3.20;;
55218;SDS011;41088;44.012;20.902;2022-09-30T05:39:48;16.02;;;3.13;;
55218;SDS011;41088;44.012;20.902;2022-09-30T05:42:14;9.73;;;2.92;;
55218;SDS011;41088;44.012;20.902;2022-09-30T05:44:40;7.57;;;3.42;;
55218;SDS011;41088;44.012;20.902;2022-09-30T05:47:06;14.32;;;3.67;;
55218;SDS011;41088;44.012;20.902;2022-09-30T05:49:35;13.32;;;5.05;;
55218;SDS011;41088;44.012;20.902;2022-09-30T05:52:01;27.08;;;9.15;;
55218;SDS011;41088;44.012;20.902;2022-09-30T05:54:27;19.17;;;6.05;;
55218;SDS011;41088;44.012;20.902;2022-09-30T05:56:53;11.70;;;4.13;;
55218;SDS011;41088;44.012;20.902;2022-09-30T05:59:19;11.85;;;3.42;;
55218;SDS011;41088;44.012;20.902;2022-09-30T06:01:45;10.27;;;2.95;;
55218;SDS011;41088;44.012;20.902;2022-09-30T06:04:11;9.82;;;3.05;;
55218;SDS011;41088;44.012;20.902;2022-09-30T06:06:37;8.80;;;3.15;;
55218;SDS011;41088;44.012;20.902;2022-09-30T06:09:03;13.20;;;2.97;;
55218;SDS011;41088;44.012;20.902;2022-09-30T06:11:29;11.63;;;3.70;;
55218;SDS011;41088;44.012;20.902;2022-09-30T06:13:55;11.13;;;3.35;;
55218;SDS011;41088;44.012;20.902;2022-09-30T06:16:21;12.10;;;2.80;;
55218;SDS011;41088;44.012;20.902;2022-09-30T06:18:48;8.00;;;2.83;;
55218;SDS011;41088;44.012;20.902;2022-09-30T06:21:15;8.32;;;2.50;;
55218;SDS011;41088;44.012;20.902;2022-09-30T06:23:42;10.45;;;3.40;;
55218;SDS011;41088;44.012;20.902;2022-09-30T06:26:09;8.80;;;2.90;;
55218;SDS011;41088;44.012;20.902;2022-09-30T06:28:37;6.00;;;2.33;;
55218;SDS011;41088;44.012;20.902;2022-09-30T06:31:04;14.93;;;2.58;;
55218;SDS011;41088;44.012;20.902;2022-09-30T06:33:31;9.18;;;2.65;;
55218;SDS011;41088;44.012;20.902;2022-09-30T06:35:57;12.38;;;2.80;;
55218;SDS011;41088;44.012;20.902;2022-09-30T06:38:28;8.55;;;2.40;;
55218;SDS011;41088;44.012;20.902;2022-09-30T06:40:57;9.73;;;2.40;;
55218;SDS011;41088;44.012;20.902;2022-09-30T06:43:24;6.85;;;2.70;;
55218;SDS011;41088;44.012;20.902;2022-09-30T06:45:50;8.80;;;2.80;;
55218;SDS011;41088;44.012;20.902;2022-09-30T06:48:19;10.80;;;3.10;;
55218;SDS011;41088;44.012;20.902;2022-09-30T06:50:44;9.95;;;2.63;;
55218;SDS011;41088;44.012;20.902;2022-09-30T06:53:10;10.05;;;3.00;;
55218;SDS011;41088;44.012;20.902;2022-09-30T06:55:37;11.00;;;3.42;;
55218;SDS011;41088;44.012;20.902;2022-09-30T06:58:08;8.10;;;4.10;;
55218;SDS011;41088;44.012;20.902;2022-09-30T07:00:38;10.68;;;4.75;;
55218;SDS011;41088;44.012;20.902;2022-09-30T07:03:04;10.85;;;4.70;;
55218;SDS011;41088;44.012;20.902;2022-09-30T07:05:34;14.30;;;5.38;;
55218;SDS011;41088;44.012;20.902;2022-09-30T07:08:01;14.23;;;5.68;;
55218;SDS011;41088;44.012;20.902;2022-09-30T07:10:27;15.30;;;6.25;;
55218;SDS011;41088;44.012;20.902;2022-09-30T07:12:53;16.38;;;7.45;;
55218;SDS011;41088;44.012;20.902;2022-09-30T07:15:19;20.60;;;9.63;;
55218;SDS011;41088;44.012;20.902;2022-09-30T07:17:50;29.63;;;10.88;;
55218;SDS011;41088;44.012;20.902;2022-09-30T07:20:20;24.83;;;10.68;;
55218;SDS011;41088;44.012;20.902;2022-09-30T07:22:46;24.27;;;11.27;;
55218;SDS011;41088;44.012;20.902;2022-09-30T07:25:13;20.15;;;11.30;;
55218;SDS011;41088;44.012;20.902;2022-09-30T07:27:39;21.20;;;11.20;;
55218;SDS011;41088;44.012;20.902;2022-09-30T07:30:06;27.25;;;11.60;;
55218;SDS011;41088;44.012;20.902;2022-09-30T07:32:32;25.02;;;10.20;;
55218;SDS011;41088;44.012;20.902;2022-09-30T07:34:58;23.23;;;9.70;;
55218;SDS011;41088;44.012;20.902;2022-09-30T07:37:24;19.05;;;9.02;;
55218;SDS011;41088;44.012;20.902;2022-09-30T07:39:50;21.65;;;9.27;;
55218;SDS011;41088;44.012;20.902;2022-09-30T07:42:17;23.50;;;10.38;;
55218;SDS011;41088;44.012;20.902;2022-09-30T07:44:45;18.92;;;9.90;;
55218;SDS011;41088;44.012;20.902;2022-09-30T07:47:12;21.95;;;9.27;;
55218;SDS011;41088;44.012;20.902;2022-09-30T07:49:39;13.07;;;6.43;;
55218;SDS011;41088;44.012;20.902;2022-09-30T07:52:07;9.90;;;4.65;;
55218;SDS011;41088;44.012;20.902;2022-09-30T07:54:34;13.15;;;4.80;;
55218;SDS011;41088;44.012;20.902;2022-09-30T07:57:01;9.88;;;4.13;;
55218;SDS011;41088;44.012;20.902;2022-09-30T07:59:28;12.10;;;4.40;;
55218;SDS011;41088;44.012;20.902;2022-09-30T08:01:55;8.93;;;4.32;;
55218;SDS011;41088;44.012;20.902;2022-09-30T08:04:22;10.38;;;4.78;;
55218;SDS011;41088;44.012;20.902;2022-09-30T08:06:53;9.40;;;4.00;;
55218;SDS011;41088;44.012;20.902;2022-09-30T08:09:20;8.80;;;3.88;;
55218;SDS011;41088;44.012;20.902;2022-09-30T08:11:47;7.50;;;3.20;;
55218;SDS011;41088;44.012;20.902;2022-09-30T08:14:14;10.65;;;3.40;;
55218;SDS011;41088;44.012;20.902;2022-09-30T08:16:45;6.70;;;2.70;;
55218;SDS011;41088;44.012;20.902;2022-09-30T08:19:14;10.02;;;3.10;;
55218;SDS011;41088;44.012;20.902;2022-09-30T08:21:45;10.38;;;3.17;;
55218;SDS011;41088;44.012;20.902;2022-09-30T08:24:11;13.63;;;5.10;;
55218;SDS011;41088;44.012;20.902;2022-09-30T08:26:38;9.77;;;2.78;;
55218;SDS011;41088;44.012;20.902;2022-09-30T08:29:04;10.77;;;3.63;;
55218;SDS011;41088;44.012;20.902;2022-09-30T08:31:30;13.05;;;3.60;;
55218;SDS011;41088;44.012;20.902;2022-09-30T08:34:00;12.48;;;5.22;;
55218;SDS011;41088;44.012;20.902;2022-09-30T08:36:27;10.50;;;4.00;;
55218;SDS011;41088;44.012;20.902;2022-09-30T08:38:54;10.15;;;2.90;;
55218;SDS011;41088;44.012;20.902;2022-09-30T08:41:41;8.15;;;2.20;;
55218;SDS011;41088;44.012;20.902;2022-09-30T08:44:40;7.93;;;2.10;;
55218;SDS011;41088;44.012;20.902;2022-09-30T08:53:10;8.13;;;2.28;;
55218;SDS011;41088;44.012;20.902;2022-09-30T08:55:47;5.00;;;2.30;;
55218;SDS011;41088;44.012;20.902;2022-09-30T08:58:24;7.00;;;2.28;;
55218;SDS011;41088;44.012;20.902;2022-09-30T09:01:10;12.65;;;2.60;;
55218;SDS011;41088;44.012;20.902;2022-09-30T09:03:41;7.85;;;1.80;;
55218;SDS011;41088;44.012;20.902;2022-09-30T09:09:08;6.43;;;2.03;;
55218;SDS011;41088;44.012;20.902;2022-09-30T09:11:56;9.07;;;2.50;;
55218;SDS011;41088;44.012;20.902;2022-09-30T09:17:49;8.70;;;2.03;;
55218;SDS011;41088;44.012;20.902;2022-09-30T09:20:34;7.00;;;1.70;;
55218;SDS011;41088;44.012;20.902;2022-09-30T09:23:07;7.03;;;2.28;;
55218;SDS011;41088;44.012;20.902;2022-09-30T09:25:36;8.75;;;2.40;;
55218;SDS011;41088;44.012;20.902;2022-09-30T09:28:02;7.35;;;2.33;;
55218;SDS011;41088;44.012;20.902;2022-09-30T09:30:45;6.07;;;2.45;;
55218;SDS011;41088;44.012;20.902;2022-09-30T09:35:52;7.57;;;2.20;;
55218;SDS011;41088;44.012;20.902;2022-09-30T09:38:26;7.40;;;2.47;;
55218;SDS011;41088;44.012;20.902;2022-09-30T09:49:33;5.30;;;1.83;;
55218;SDS011;41088;44.012;20.902;2022-09-30T09:54:41;6.97;;;1.80;;
55218;SDS011;41088;44.012;20.902;2022-09-30T09:57:16;6.65;;;2.25;;
55218;SDS011;41088;44.012;20.902;2022-09-30T10:03:00;6.90;;;1.83;;
55218;SDS011;41088;44.012;20.902;2022-09-30T10:05:37;7.88;;;1.60;;
55218;SDS011;41088;44.012;20.902;2022-09-30T10:10:47;3.85;;;1.10;;
55218;SDS011;41088;44.012;20.902;2022-09-30T10:13:24;8.90;;;1.00;;
55218;SDS011;41088;44.012;20.902;2022-09-30T10:15:54;5.45;;;1.63;;
55218;SDS011;41088;44.012;20.902;2022-09-30T10:18:24;4.75;;;1.20;;
55218;SDS011;41088;44.012;20.902;2022-09-30T10:20:57;10.38;;;2.70;;
55218;SDS011;41088;44.012;20.902;2022-09-30T10:23:29;4.97;;;1.40;;
55218;SDS011;41088;44.012;20.902;2022-09-30T10:26:01;8.73;;;1.65;;
55218;SDS011;41088;44.012;20.902;2022-09-30T10:28:50;12.13;;;1.42;;
55218;SDS011;41088;44.012;20.902;2022-09-30T10:31:28;3.10;;;0.90;;
55218;SDS011;41088;44.012;20.902;2022-09-30T10:36:47;7.18;;;1.20;;
55218;SDS011;41088;44.012;20.902;2022-09-30T10:39:27;6.70;;;1.40;;
55218;SDS011;41088;44.012;20.902;2022-09-30T10:44:28;4.80;;;1.58;;
55218;SDS011;41088;44.012;20.902;2022-09-30T10:46:58;4.18;;;1.20;;
55218;SDS011;41088;44.012;20.902;2022-09-30T10:49:27;3.38;;;1.27;;
55218;SDS011;41088;44.012;20.902;2022-09-30T10:51:58;10.25;;;1.58;;
55218;SDS011;41088;44.012;20.902;2022-09-30T10:57:04;4.47;;;1.30;;
55218;SDS011;41088;44.012;20.902;2022-09-30T10:59:38;3.83;;;1.30;;
55218;SDS011;41088;44.012;20.902;2022-09-30T11:02:18;7.50;;;1.35;;
55218;SDS011;41088;44.012;20.902;2022-09-30T11:16:01;3.92;;;1.30;;
55218;SDS011;41088;44.012;20.902;2022-09-30T11:21:47;3.47;;;1.40;;
55218;SDS011;41088;44.012;20.902;2022-09-30T11:24:41;5.05;;;1.45;;
55218;SDS011;41088;44.012;20.902;2022-09-30T11:27:35;5.00;;;1.35;;
55218;SDS011;41088;44.012;20.902;2022-09-30T11:30:17;5.55;;;1.55;;
55218;SDS011;41088;44.012;20.902;2022-09-30T11:35:53;6.78;;;2.05;;
55218;SDS011;41088;44.012;20.902;2022-09-30T11:41:03;8.75;;;1.63;;
55218;SDS011;41088;44.012;20.902;2022-09-30T11:52:15;6.03;;;1.40;;
55218;SDS011;41088;44.012;20.902;2022-09-30T12:00:32;7.80;;;1.38;;
55218;SDS011;41088;44.012;20.902;2022-09-30T12:03:10;9.18;;;1.40;;
55218;SDS011;41088;44.012;20.902;2022-09-30T12:05:56;2.30;;;1.10;;
55218;SDS011;41088;44.012;20.902;2022-09-30T12:08:29;4.22;;;1.30;;
55218;SDS011;41088;44.012;20.902;2022-09-30T12:12:04;5.35;;;1.20;;
55218;SDS011;41088;44.012;20.902;2022-09-30T12:16:52;7.65;;;1.40;;
55218;SDS011;41088;44.012;20.902;2022-09-30T12:19:24;5.35;;;1.25;;
55218;SDS011;41088;44.012;20.902;2022-09-30T12:22:00;6.78;;;1.50;;
55218;SDS011;41088;44.012;20.902;2022-09-30T12:24:38;6.53;;;1.47;;
55218;SDS011;41088;44.012;20.902;2022-09-30T12:27:13;5.18;;;1.23;;
55218;SDS011;41088;44.012;20.902;2022-09-30T12:29:49;5.03;;;1.17;;
55218;SDS011;41088;44.012;20.902;2022-09-30T12:33:05;5.85;;;1.13;;
55218;SDS011;41088;44.012;20.902;2022-09-30T12:36:08;5.22;;;1.20;;
55218;SDS011;41088;44.012;20.902;2022-09-30T12:39:17;6.40;;;1.55;;
55218;SDS011;41088;44.012;20.902;2022-09-30T12:50:10;7.65;;;1.50;;
55218;SDS011;41088;44.012;20.902;2022-09-30T12:52:39;3.65;;;1.20;;
55218;SDS011;41088;44.012;20.902;2022-09-30T12:55:07;4.47;;;1.30;;
55218;SDS011;41088;44.012;20.902;2022-09-30T12:57:44;6.07;;;1.40;;
55218;SDS011;41088;44.012;20.902;2022-09-30T13:00:16;3.53;;;1.27;;
55218;SDS011;41088;44.012;20.902;2022-09-30T13:02:58;3.38;;;1.40;;
55218;SDS011;41088;44.012;20.902;2022-09-30T13:10:32;7.15;;;1.50;;
55218;SDS011;41088;44.012;20.902;2022-09-30T13:15:53;8.07;;;1.50;;
55218;SDS011;41088;44.012;20.902;2022-09-30T13:26:33;5.72;;;1.60;;
55218;SDS011;41088;44.012;20.902;2022-09-30T13:31:32;5.45;;;1.50;;
55218;SDS011;41088;44.012;20.902;2022-09-30T13:34:24;5.47;;;1.25;;
55218;SDS011;41088;44.012;20.902;2022-09-30T13:37:01;4.60;;;1.35;;
55218;SDS011;41088;44.012;20.902;2022-09-30T13:39:29;6.20;;;1.42;;
55218;SDS011;41088;44.012;20.902;2022-09-30T13:47:17;8.23;;;1.58;;
55218;SDS011;41088;44.012;20.902;2022-09-30T13:49:55;4.93;;;1.50;;
55218;SDS011;41088;44.012;20.902;2022-09-30T13:55:01;5.47;;;1.58;;
55218;SDS011;41088;44.012;20.902;2022-09-30T13:58:22;6.65;;;1.58;;
55218;SDS011;41088;44.012;20.902;2022-09-30T14:00:26;10.98;;;1.50;;
55218;SDS011;41088;44.012;20.902;2022-09-30T14:05:53;7.30;;;1.60;;
55218;SDS011;41088;44.012;20.902;2022-09-30T14:16:34;5.85;;;1.60;;
55218;SDS011;41088;44.012;20.902;2022-09-30T14:22:27;8.20;;;2.63;;
55218;SDS011;41088;44.012;20.902;2022-09-30T14:24:54;7.38;;;3.00;;
55218;SDS011;41088;44.012;20.902;2022-09-30T14:32:54;5.78;;;1.65;;
55218;SDS011;41088;44.012;20.902;2022-09-30T14:35:33;13.88;;;2.10;;
55218;SDS011;41088;44.012;20.902;2022-09-30T14:38:20;5.65;;;1.80;;
55218;SDS011;41088;44.012;20.902;2022-09-30T14:40:52;6.22;;;1.85;;
55218;SDS011;41088;44.012;20.902;2022-09-30T14:43:28;5.40;;;2.07;;
55218;SDS011;41088;44.012;20.902;2022-09-30T14:46:00;7.45;;;2.35;;
55218;SDS011;41088;44.012;20.902;2022-09-30T14:48:32;8.80;;;3.08;;
55218;SDS011;41088;44.012;20.902;2022-09-30T14:53:38;6.85;;;2.13;;
55218;SDS011;41088;44.012;20.902;2022-09-30T14:56:18;6.50;;;2.25;;
55218;SDS011;41088;44.012;20.902;2022-09-30T14:58:54;9.50;;;2.42;;
55218;SDS011;41088;44.012;20.902;2022-09-30T15:01:24;9.27;;;2.20;;
55218;SDS011;41088;44.012;20.902;2022-09-30T15:06:40;9.88;;;2.53;;
55218;SDS011;41088;44.012;20.902;2022-09-30T15:09:14;9.48;;;2.80;;
55218;SDS011;41088;44.012;20.902;2022-09-30T15:11:47;11.10;;;2.53;;
55218;SDS011;41088;44.012;20.902;2022-09-30T15:14:18;10.30;;;3.15;;
55218;SDS011;41088;44.012;20.902;2022-09-30T15:16:53;6.60;;;3.05;;
55218;SDS011;41088;44.012;20.902;2022-09-30T15:19:22;9.18;;;2.85;;
55218;SDS011;41088;44.012;20.902;2022-09-30T15:22:00;9.13;;;4.35;;
55218;SDS011;41088;44.012;20.902;2022-09-30T15:24:29;9.00;;;3.90;;
55218;SDS011;41088;44.012;20.902;2022-09-30T15:26:56;9.50;;;3.63;;
55218;SDS011;41088;44.012;20.902;2022-09-30T15:29:24;10.38;;;3.30;;
55218;SDS011;41088;44.012;20.902;2022-09-30T15:31:55;12.23;;;3.28;;
55218;SDS011;41088;44.012;20.902;2022-09-30T15:34:28;7.80;;;3.00;;
55218;SDS011;41088;44.012;20.902;2022-09-30T15:36:59;9.18;;;2.90;;
55218;SDS011;41088;44.012;20.902;2022-09-30T15:39:36;11.30;;;3.88;;
55218;SDS011;41088;44.012;20.902;2022-09-30T15:42:39;8.05;;;3.75;;
55218;SDS011;41088;44.012;20.902;2022-09-30T15:45:32;11.27;;;3.50;;
55218;SDS011;41088;44.012;20.902;2022-09-30T15:50:50;9.32;;;4.60;;
55218;SDS011;41088;44.012;20.902;2022-09-30T15:53:20;10.90;;;4.70;;
55218;SDS011;41088;44.012;20.902;2022-09-30T15:55:57;11.23;;;5.15;;
55218;SDS011;41088;44.012;20.902;2022-09-30T15:58:39;11.77;;;5.28;;
55218;SDS011;41088;44.012;20.902;2022-09-30T16:03:55;10.93;;;5.50;;
55218;SDS011;41088;44.012;20.902;2022-09-30T16:06:27;11.65;;;5.60;;
55218;SDS011;41088;44.012;20.902;2022-09-30T16:11:34;13.25;;;4.80;;
55218;SDS011;41088;44.012;20.902;2022-09-30T16:14:15;7.78;;;3.70;;
55218;SDS011;41088;44.012;20.902;2022-09-30T16:16:52;13.82;;;5.03;;
55218;SDS011;41088;44.012;20.902;2022-09-30T16:19:24;14.77;;;5.32;;
55218;SDS011;41088;44.012;20.902;2022-09-30T16:21:52;11.90;;;4.80;;
55218;SDS011;41088;44.012;20.902;2022-09-30T16:26:48;11.23;;;5.00;;
55218;SDS011;41088;44.012;20.902;2022-09-30T16:29:15;9.93;;;4.35;;
55218;SDS011;41088;44.012;20.902;2022-09-30T16:31:42;10.88;;;4.35;;
55218;SDS011;41088;44.012;20.902;2022-09-30T16:34:17;11.63;;;4.40;;
55218;SDS011;41088;44.012;20.902;2022-09-30T16:39:17;13.90;;;4.10;;
55218;SDS011;41088;44.012;20.902;2022-09-30T16:41:44;19.38;;;4.60;;
55218;SDS011;41088;44.012;20.902;2022-09-30T16:44:10;12.82;;;5.03;;
55218;SDS011;41088;44.012;20.902;2022-09-30T16:46:37;12.85;;;6.22;;
55218;SDS011;41088;44.012;20.902;2022-09-30T16:49:14;11.95;;;5.35;;
55218;SDS011;41088;44.012;20.902;2022-09-30T16:51:41;14.10;;;5.43;;
55218;SDS011;41088;44.012;20.902;2022-09-30T16:54:07;11.40;;;4.57;;
55218;SDS011;41088;44.012;20.902;2022-09-30T16:56:34;11.18;;;5.05;;
55218;SDS011;41088;44.012;20.902;2022-09-30T16:59:00;9.98;;;5.00;;
55218;SDS011;41088;44.012;20.902;2022-09-30T17:01:26;14.65;;;4.93;;
55218;SDS011;41088;44.012;20.902;2022-09-30T17:03:56;11.77;;;4.30;;
55218;SDS011;41088;44.012;20.902;2022-09-30T17:06:26;9.40;;;4.63;;
55218;SDS011;41088;44.012;20.902;2022-09-30T17:08:53;7.90;;;4.30;;
55218;SDS011;41088;44.012;20.902;2022-09-30T17:11:27;16.42;;;6.47;;
55218;SDS011;41088;44.012;20.902;2022-09-30T17:13:56;14.65;;;6.63;;
55218;SDS011;41088;44.012;20.902;2022-09-30T17:16:27;19.02;;;8.05;;
55218;SDS011;41088;44.012;20.902;2022-09-30T17:18:53;13.18;;;4.90;;
55218;SDS011;41088;44.012;20.902;2022-09-30T17:21:20;26.55;;;6.20;;
55218;SDS011;41088;44.012;20.902;2022-09-30T17:23:47;17.48;;;5.40;;
55218;SDS011;41088;44.012;20.902;2022-09-30T17:26:14;13.70;;;5.70;;
55218;SDS011;41088;44.012;20.902;2022-09-30T17:28:40;13.88;;;5.30;;
55218;SDS011;41088;44.012;20.902;2022-09-30T17:31:07;17.42;;;6.22;;
55218;SDS011;41088;44.012;20.902;2022-09-30T17:33:34;13.85;;;6.07;;
55218;SDS011;41088;44.012;20.902;2022-09-30T17:36:06;26.75;;;11.63;;
55218;SDS011;41088;44.012;20.902;2022-09-30T17:38:34;9.98;;;4.68;;
55218;SDS011;41088;44.012;20.902;2022-09-30T17:41:01;11.52;;;3.72;;
55218;SDS011;41088;44.012;20.902;2022-09-30T17:43:46;15.40;;;4.30;;
55218;SDS011;41088;44.012;20.902;2022-09-30T17:46:12;11.23;;;4.40;;
55218;SDS011;41088;44.012;20.902;2022-09-30T17:48:43;10.20;;;4.65;;
55218;SDS011;41088;44.012;20.902;2022-09-30T17:51:10;10.77;;;5.15;;
55218;SDS011;41088;44.012;20.902;2022-09-30T17:53:39;11.55;;;4.25;;
55218;SDS011;41088;44.012;20.902;2022-09-30T17:56:05;11.32;;;4.07;;
55218;SDS011;41088;44.012;20.902;2022-09-30T17:58:41;11.82;;;4.20;;
55218;SDS011;41088;44.012;20.902;2022-09-30T18:01:16;13.55;;;4.88;;
55218;SDS011;41088;44.012;20.902;2022-09-30T18:03:44;17.13;;;4.85;;
55218;SDS011;41088;44.012;20.902;2022-09-30T18:06:10;14.30;;;6.60;;
55218;SDS011;41088;44.012;20.902;2022-09-30T18:08:36;16.67;;;6.30;;
55218;SDS011;41088;44.012;20.902;2022-09-30T18:11:02;22.02;;;11.38;;
55218;SDS011;41088;44.012;20.902;2022-09-30T18:13:28;19.70;;;11.60;;
55218;SDS011;41088;44.012;20.902;2022-09-30T18:15:54;13.77;;;6.80;;
55218;SDS011;41088;44.012;20.902;2022-09-30T18:18:26;18.50;;;8.32;;